Terminal Aerodrome Forecast
Issued by NWS

Home | Current Version | Previous Version | Text Only | Print | Product List | Glossary On
Versions: 1 2 3 4 5 6 7 8 9 10 11 12 13 14 15
333
FTUS42 KTBW 241732
TAFPIE
TAF
KPIE 241732Z 2418/2518 17004KT P6SM VCTS SCT035CB BKN090
     FM242200 27005KT P6SM SCT080 BKN150
     FM250100 23004KT P6SM SCT070 BKN150=

USA.gov is the U.S. government's official web portal to all federal, state and local government web resources and services.